sensor_id;sensor_type;location;lat;lon;timestamp;temperature;humidity
851;DHT22;412;51.400;7.480;2023-01-15T00:01:30;10.70;99.90
851;DHT22;412;51.400;7.480;2023-01-15T00:03:57;10.50;99.90
851;DHT22;412;51.400;7.480;2023-01-15T00:06:24;10.40;99.90
851;DHT22;412;51.400;7.480;2023-01-15T00:08:50;10.20;99.90
851;DHT22;412;51.400;7.480;2023-01-15T00:11:16;10.10;99.90
851;DHT22;412;51.400;7.480;2023-01-15T00:13:43;9.90;99.90
851;DHT22;412;51.400;7.480;2023-01-15T00:16:14;9.80;99.90
851;DHT22;412;51.400;7.480;2023-01-15T00:18:40;9.70;99.90
851;DHT22;412;51.400;7.480;2023-01-15T00:21:09;9.70;99.90
851;DHT22;412;51.400;7.480;2023-01-15T00:23:35;9.60;99.90
851;DHT22;412;51.400;7.480;2023-01-15T00:26:21;9.60;99.90
851;DHT22;412;51.400;7.480;2023-01-15T00:29:06;9.60;99.90
851;DHT22;412;51.400;7.480;2023-01-15T00:31:33;9.50;99.90
851;DHT22;412;51.400;7.480;2023-01-15T00:34:00;9.60;99.90
851;DHT22;412;51.400;7.480;2023-01-15T00:36:26;9.50;99.90
851;DHT22;412;51.400;7.480;2023-01-15T00:38:52;9.50;99.90
851;DHT22;412;51.400;7.480;2023-01-15T00:41:18;9.50;99.90
851;DHT22;412;51.400;7.480;2023-01-15T00:43:43;9.50;99.90
851;DHT22;412;51.400;7.480;2023-01-15T00:46:09;9.60;99.90
851;DHT22;412;51.400;7.480;2023-01-15T00:48:35;9.60;99.90
851;DHT22;412;51.400;7.480;2023-01-15T00:51:02;9.60;99.90
851;DHT22;412;51.400;7.480;2023-01-15T00:53:28;9.60;99.90
851;DHT22;412;51.400;7.480;2023-01-15T00:55:54;9.60;99.90
851;DHT22;412;51.400;7.480;2023-01-15T00:58:19;9.60;99.90
851;DHT22;412;51.400;7.480;2023-01-15T01:00:45;9.60;99.90
851;DHT22;412;51.400;7.480;2023-01-15T01:03:11;9.70;99.90
851;DHT22;412;51.400;7.480;2023-01-15T01:05:37;9.70;99.90
851;DHT22;412;51.400;7.480;2023-01-15T01:08:04;9.70;99.90
851;DHT22;412;51.400;7.480;2023-01-15T01:10:30;9.70;99.90
851;DHT22;412;51.400;7.480;2023-01-15T01:12:56;9.70;99.90
851;DHT22;412;51.400;7.480;2023-01-15T01:15:22;9.60;99.90
851;DHT22;412;51.400;7.480;2023-01-15T01:17:50;9.60;99.90
851;DHT22;412;51.400;7.480;2023-01-15T01:20:16;9.70;99.90
851;DHT22;412;51.400;7.480;2023-01-15T01:22:42;9.60;99.90
851;DHT22;412;51.400;7.480;2023-01-15T01:25:08;9.60;99.90
851;DHT22;412;51.400;7.480;2023-01-15T01:27:34;9.70;99.90
851;DHT22;412;51.400;7.480;2023-01-15T01:30:01;9.80;99.90
851;DHT22;412;51.400;7.480;2023-01-15T01:32:26;9.70;99.90
851;DHT22;412;51.400;7.480;2023-01-15T01:34:52;9.70;99.90
851;DHT22;412;51.400;7.480;2023-01-15T01:37:18;9.80;99.90
851;DHT22;412;51.400;7.480;2023-01-15T01:39:43;9.80;99.90
851;DHT22;412;51.400;7.480;2023-01-15T01:42:14;9.70;99.90
851;DHT22;412;51.400;7.480;2023-01-15T01:47:15;9.60;99.90
851;DHT22;412;51.400;7.480;2023-01-15T01:49:46;9.60;99.90
851;DHT22;412;51.400;7.480;2023-01-15T01:52:23;9.70;99.90
851;DHT22;412;51.400;7.480;2023-01-15T01:54:50;9.70;99.90
851;DHT22;412;51.400;7.480;2023-01-15T01:57:18;9.70;99.90
851;DHT22;412;51.400;7.480;2023-01-15T01:59:46;9.70;99.90
851;DHT22;412;51.400;7.480;2023-01-15T02:02:12;9.80;99.90
851;DHT22;412;51.400;7.480;2023-01-15T02:04:39;9.80;99.90
851;DHT22;412;51.400;7.480;2023-01-15T02:07:06;9.80;99.90
851;DHT22;412;51.400;7.480;2023-01-15T02:09:32;9.90;99.90
851;DHT22;412;51.400;7.480;2023-01-15T02:12:05;9.90;99.90
851;DHT22;412;51.400;7.480;2023-01-15T02:14:53;9.90;99.90
851;DHT22;412;51.400;7.480;2023-01-15T02:17:38;9.90;99.90
851;DHT22;412;51.400;7.480;2023-01-15T02:23:32;9.80;99.90
851;DHT22;412;51.400;7.480;2023-01-15T02:29:09;9.80;99.90
851;DHT22;412;51.400;7.480;2023-01-15T02:31:41;9.80;99.90
851;DHT22;412;51.400;7.480;2023-01-15T02:34:24;9.70;99.90
851;DHT22;412;51.400;7.480;2023-01-15T02:37:07;9.80;99.90
851;DHT22;412;51.400;7.480;2023-01-15T02:39:36;9.70;99.90
851;DHT22;412;51.400;7.480;2023-01-15T02:42:04;9.70;99.90
851;DHT22;412;51.400;7.480;2023-01-15T02:44:33;9.60;99.90
851;DHT22;412;51.400;7.480;2023-01-15T02:47:03;9.60;99.90
851;DHT22;412;51.400;7.480;2023-01-15T02:49:30;9.70;99.90
851;DHT22;412;51.400;7.480;2023-01-15T02:51:58;9.70;99.90
851;DHT22;412;51.400;7.480;2023-01-15T02:54:30;9.80;99.90
851;DHT22;412;51.400;7.480;2023-01-15T02:56:59;9.80;99.90
851;DHT22;412;51.400;7.480;2023-01-15T02:59:33;9.80;99.90
851;DHT22;412;51.400;7.480;2023-01-15T03:02:01;9.70;99.90
851;DHT22;412;51.400;7.480;2023-01-15T03:04:43;9.70;99.90
851;DHT22;412;51.400;7.480;2023-01-15T03:07:18;9.70;99.90
851;DHT22;412;51.400;7.480;2023-01-15T03:09:47;9.70;99.90
851;DHT22;412;51.400;7.480;2023-01-15T03:15:02;9.70;99.90
851;DHT22;412;51.400;7.480;2023-01-15T03:17:53;9.70;99.90
851;DHT22;412;51.400;7.480;2023-01-15T03:20:22;9.70;99.90
851;DHT22;412;51.400;7.480;2023-01-15T03:22:54;9.70;99.90
851;DHT22;412;51.400;7.480;2023-01-15T03:25:26;9.70;99.90
851;DHT22;412;51.400;7.480;2023-01-15T03:27:57;9.70;99.90
851;DHT22;412;51.400;7.480;2023-01-15T03:30:24;9.70;99.90
851;DHT22;412;51.400;7.480;2023-01-15T03:32:50;9.70;99.90
851;DHT22;412;51.400;7.480;2023-01-15T03:35:44;9.70;99.90
851;DHT22;412;51.400;7.480;2023-01-15T03:38:17;9.70;99.90
851;DHT22;412;51.400;7.480;2023-01-15T03:41:13;9.60;99.90
851;DHT22;412;51.400;7.480;2023-01-15T03:52:00;9.60;99.90
851;DHT22;412;51.400;7.480;2023-01-15T03:57:17;9.70;99.90
851;DHT22;412;51.400;7.480;2023-01-15T03:59:52;9.70;99.90
851;DHT22;412;51.400;7.480;2023-01-15T04:02:21;9.60;99.90
851;DHT22;412;51.400;7.480;2023-01-15T04:04:49;9.60;99.90
851;DHT22;412;51.400;7.480;2023-01-15T04:07:15;9.70;99.90
851;DHT22;412;51.400;7.480;2023-01-15T04:09:41;9.60;99.90
851;DHT22;412;51.400;7.480;2023-01-15T04:12:07;9.60;99.90
851;DHT22;412;51.400;7.480;2023-01-15T04:14:33;9.60;99.90
851;DHT22;412;51.400;7.480;2023-01-15T04:16:59;9.60;99.90
851;DHT22;412;51.400;7.480;2023-01-15T04:19:25;9.60;99.90
851;DHT22;412;51.400;7.480;2023-01-15T04:21:50;9.60;99.90
851;DHT22;412;51.400;7.480;2023-01-15T04:24:16;9.60;99.90
851;DHT22;412;51.400;7.480;2023-01-15T04:26:42;9.60;99.90
851;DHT22;412;51.400;7.480;2023-01-15T04:29:08;9.60;99.90
851;DHT22;412;51.400;7.480;2023-01-15T04:31:33;9.50;99.90
851;DHT22;412;51.400;7.480;2023-01-15T04:34:01;9.50;99.90
851;DHT22;412;51.400;7.480;2023-01-15T04:36:27;9.60;99.90
851;DHT22;412;51.400;7.480;2023-01-15T04:38:53;9.60;99.90
851;DHT22;412;51.400;7.480;2023-01-15T04:41:22;9.60;99.90
851;DHT22;412;51.400;7.480;2023-01-15T04:44:06;9.60;99.90
851;DHT22;412;51.400;7.480;2023-01-15T04:46:34;9.70;99.90
851;DHT22;412;51.400;7.480;2023-01-15T04:49:01;9.60;99.90
851;DHT22;412;51.400;7.480;2023-01-15T04:51:27;9.60;99.90
851;DHT22;412;51.400;7.480;2023-01-15T04:53:53;9.40;99.90
851;DHT22;412;51.400;7.480;2023-01-15T04:56:18;9.40;99.90
851;DHT22;412;51.400;7.480;2023-01-15T04:58:44;9.40;99.90
851;DHT22;412;51.400;7.480;2023-01-15T05:01:15;9.30;99.90
851;DHT22;412;51.400;7.480;2023-01-15T05:03:41;9.40;99.90
851;DHT22;412;51.400;7.480;2023-01-15T05:06:07;9.40;99.90
851;DHT22;412;51.400;7.480;2023-01-15T05:08:33;9.40;99.90
851;DHT22;412;51.400;7.480;2023-01-15T05:11:06;9.40;99.90
851;DHT22;412;51.400;7.480;2023-01-15T05:13:32;9.40;99.90
851;DHT22;412;51.400;7.480;2023-01-15T05:16:08;9.30;99.90
851;DHT22;412;51.400;7.480;2023-01-15T05:18:34;9.20;99.90
851;DHT22;412;51.400;7.480;2023-01-15T05:21:00;9.20;99.90
851;DHT22;412;51.400;7.480;2023-01-15T05:23:25;9.20;99.90
851;DHT22;412;51.400;7.480;2023-01-15T05:25:51;9.20;99.90
851;DHT22;412;51.400;7.480;2023-01-15T05:28:17;9.20;99.90
851;DHT22;412;51.400;7.480;2023-01-15T05:30:44;9.30;99.90
851;DHT22;412;51.400;7.480;2023-01-15T05:33:09;9.30;99.90
851;DHT22;412;51.400;7.480;2023-01-15T05:35:35;9.10;99.90
851;DHT22;412;51.400;7.480;2023-01-15T05:38:01;9.20;99.90
851;DHT22;412;51.400;7.480;2023-01-15T05:40:30;9.30;99.90
851;DHT22;412;51.400;7.480;2023-01-15T05:42:56;9.30;99.90
851;DHT22;412;51.400;7.480;2023-01-15T05:45:22;9.30;99.90
851;DHT22;412;51.400;7.480;2023-01-15T05:47:47;9.30;99.90
851;DHT22;412;51.400;7.480;2023-01-15T05:50:13;9.40;99.90
851;DHT22;412;51.400;7.480;2023-01-15T05:52:39;9.30;99.90
851;DHT22;412;51.400;7.480;2023-01-15T05:55:05;9.30;99.90
851;DHT22;412;51.400;7.480;2023-01-15T05:57:30;9.20;99.90
851;DHT22;412;51.400;7.480;2023-01-15T05:59:58;9.30;99.90
851;DHT22;412;51.400;7.480;2023-01-15T06:02:23;9.30;99.90
851;DHT22;412;51.400;7.480;2023-01-15T06:04:49;9.30;99.90
851;DHT22;412;51.400;7.480;2023-01-15T06:07:15;9.40;99.90
851;DHT22;412;51.400;7.480;2023-01-15T06:09:43;9.30;99.90
851;DHT22;412;51.400;7.480;2023-01-15T06:12:09;9.30;99.90
851;DHT22;412;51.400;7.480;2023-01-15T06:14:35;9.30;99.90
851;DHT22;412;51.400;7.480;2023-01-15T06:17:02;9.40;99.90
851;DHT22;412;51.400;7.480;2023-01-15T06:19:27;9.30;99.90
851;DHT22;412;51.400;7.480;2023-01-15T06:21:53;9.30;99.90
851;DHT22;412;51.400;7.480;2023-01-15T06:24:19;9.30;99.90
851;DHT22;412;51.400;7.480;2023-01-15T06:26:45;9.10;99.90
851;DHT22;412;51.400;7.480;2023-01-15T06:29:11;9.10;99.90
851;DHT22;412;51.400;7.480;2023-01-15T06:31:37;9.20;99.90
851;DHT22;412;51.400;7.480;2023-01-15T06:34:03;9.30;99.90
851;DHT22;412;51.400;7.480;2023-01-15T06:36:29;9.30;99.90
851;DHT22;412;51.400;7.480;2023-01-15T06:38:55;9.30;99.90
851;DHT22;412;51.400;7.480;2023-01-15T06:41:23;9.20;99.90
851;DHT22;412;51.400;7.480;2023-01-15T06:44:13;9.20;99.90
851;DHT22;412;51.400;7.480;2023-01-15T06:46:57;9.20;99.90
851;DHT22;412;51.400;7.480;2023-01-15T06:49:43;9.20;99.90
851;DHT22;412;51.400;7.480;2023-01-15T06:52:09;9.30;99.90
851;DHT22;412;51.400;7.480;2023-01-15T06:54:35;9.30;99.90
851;DHT22;412;51.400;7.480;2023-01-15T06:57:01;9.20;99.90
851;DHT22;412;51.400;7.480;2023-01-15T06:59:28;9.20;99.90
851;DHT22;412;51.400;7.480;2023-01-15T07:01:53;9.30;99.90
851;DHT22;412;51.400;7.480;2023-01-15T07:04:19;9.30;99.90
851;DHT22;412;51.400;7.480;2023-01-15T07:06:45;9.30;99.90
851;DHT22;412;51.400;7.480;2023-01-15T07:09:11;9.40;99.90
851;DHT22;412;51.400;7.480;2023-01-15T07:11:37;9.30;99.90
851;DHT22;412;51.400;7.480;2023-01-15T07:14:23;9.40;99.90
851;DHT22;412;51.400;7.480;2023-01-15T07:16:50;9.40;99.90
851;DHT22;412;51.400;7.480;2023-01-15T07:19:16;9.40;99.90
851;DHT22;412;51.400;7.480;2023-01-15T07:21:43;9.40;99.90
851;DHT22;412;51.400;7.480;2023-01-15T07:24:10;9.40;99.90
851;DHT22;412;51.400;7.480;2023-01-15T07:26:36;9.50;99.90
851;DHT22;412;51.400;7.480;2023-01-15T07:29:03;9.40;99.90
851;DHT22;412;51.400;7.480;2023-01-15T07:31:29;9.30;99.90
851;DHT22;412;51.400;7.480;2023-01-15T07:33:55;9.30;99.90
851;DHT22;412;51.400;7.480;2023-01-15T07:36:21;9.40;99.90
851;DHT22;412;51.400;7.480;2023-01-15T07:38:47;9.40;99.90
851;DHT22;412;51.400;7.480;2023-01-15T07:41:13;9.40;99.90
851;DHT22;412;51.400;7.480;2023-01-15T07:43:57;9.30;99.90
851;DHT22;412;51.400;7.480;2023-01-15T07:46:41;9.30;99.90
851;DHT22;412;51.400;7.480;2023-01-15T07:49:26;9.20;99.90
851;DHT22;412;51.400;7.480;2023-01-15T07:52:15;9.20;99.90
851;DHT22;412;51.400;7.480;2023-01-15T07:54:41;9.20;99.90
851;DHT22;412;51.400;7.480;2023-01-15T07:57:07;9.20;99.90
851;DHT22;412;51.400;7.480;2023-01-15T07:59:34;9.10;99.90
851;DHT22;412;51.400;7.480;2023-01-15T08:02:00;9.00;99.90
851;DHT22;412;51.400;7.480;2023-01-15T08:04:25;9.00;99.90
851;DHT22;412;51.400;7.480;2023-01-15T08:06:51;9.10;99.90
851;DHT22;412;51.400;7.480;2023-01-15T08:09:17;9.10;99.90
851;DHT22;412;51.400;7.480;2023-01-15T08:11:42;9.10;99.90
851;DHT22;412;51.400;7.480;2023-01-15T08:14:27;9.20;99.90
851;DHT22;412;51.400;7.480;2023-01-15T08:17:12;9.20;99.90
851;DHT22;412;51.400;7.480;2023-01-15T08:19:37;9.20;99.90
851;DHT22;412;51.400;7.480;2023-01-15T08:22:03;9.20;99.90
851;DHT22;412;51.400;7.480;2023-01-15T08:24:29;9.20;99.90
851;DHT22;412;51.400;7.480;2023-01-15T08:26:54;9.10;99.90
851;DHT22;412;51.400;7.480;2023-01-15T08:29:21;9.20;99.90
851;DHT22;412;51.400;7.480;2023-01-15T08:31:47;9.10;99.90
851;DHT22;412;51.400;7.480;2023-01-15T08:34:13;9.10;99.90
851;DHT22;412;51.400;7.480;2023-01-15T08:36:39;9.10;99.90
851;DHT22;412;51.400;7.480;2023-01-15T08:39:05;9.10;99.90
851;DHT22;412;51.400;7.480;2023-01-15T08:41:31;9.10;99.90
851;DHT22;412;51.400;7.480;2023-01-15T08:43:56;9.00;99.90
851;DHT22;412;51.400;7.480;2023-01-15T08:46:22;9.00;99.90
851;DHT22;412;51.400;7.480;2023-01-15T08:48:48;9.10;99.90
851;DHT22;412;51.400;7.480;2023-01-15T08:51:14;9.10;99.90
851;DHT22;412;51.400;7.480;2023-01-15T08:53:40;9.10;99.90
851;DHT22;412;51.400;7.480;2023-01-15T08:56:15;9.10;99.90
851;DHT22;412;51.400;7.480;2023-01-15T08:58:42;9.20;99.90
851;DHT22;412;51.400;7.480;2023-01-15T09:01:09;9.20;99.90
851;DHT22;412;51.400;7.480;2023-01-15T09:03:36;9.20;99.90
851;DHT22;412;51.400;7.480;2023-01-15T09:06:02;9.10;99.90
851;DHT22;412;51.400;7.480;2023-01-15T09:08:28;9.00;99.90
851;DHT22;412;51.400;7.480;2023-01-15T09:10:58;9.10;99.90
851;DHT22;412;51.400;7.480;2023-01-15T09:13:25;9.50;99.90
851;DHT22;412;51.400;7.480;2023-01-15T09:15:51;9.00;99.90
851;DHT22;412;51.400;7.480;2023-01-15T09:18:17;9.00;99.90
851;DHT22;412;51.400;7.480;2023-01-15T09:20:48;9.00;99.90
851;DHT22;412;51.400;7.480;2023-01-15T09:23:14;8.90;99.90
851;DHT22;412;51.400;7.480;2023-01-15T09:25:40;8.90;99.90
851;DHT22;412;51.400;7.480;2023-01-15T09:28:15;9.00;99.90
851;DHT22;412;51.400;7.480;2023-01-15T09:30:40;9.00;99.90
851;DHT22;412;51.400;7.480;2023-01-15T09:33:06;9.00;99.90
851;DHT22;412;51.400;7.480;2023-01-15T09:35:32;9.00;99.90
851;DHT22;412;51.400;7.480;2023-01-15T09:37:57;8.90;99.90
851;DHT22;412;51.400;7.480;2023-01-15T09:43:12;8.90;99.90
851;DHT22;412;51.400;7.480;2023-01-15T09:45:49;8.90;99.90
851;DHT22;412;51.400;7.480;2023-01-15T09:48:33;8.80;99.90
851;DHT22;412;51.400;7.480;2023-01-15T09:51:17;8.80;99.90
851;DHT22;412;51.400;7.480;2023-01-15T09:56:36;9.50;99.90
851;DHT22;412;51.400;7.480;2023-01-15T09:59:30;10.10;99.80
851;DHT22;412;51.400;7.480;2023-01-15T10:01:57;10.40;99.40
851;DHT22;412;51.400;7.480;2023-01-15T10:04:44;11.00;98.40
851;DHT22;412;51.400;7.480;2023-01-15T10:10:02;11.10;96.00
851;DHT22;412;51.400;7.480;2023-01-15T10:12:29;11.00;95.00
851;DHT22;412;51.400;7.480;2023-01-15T10:17:55;11.00;97.30
851;DHT22;412;51.400;7.480;2023-01-15T10:32:26;10.60;96.40
851;DHT22;412;51.400;7.480;2023-01-15T10:40:32;10.40;98.00
851;DHT22;412;51.400;7.480;2023-01-15T10:43:23;10.50;98.50
851;DHT22;412;51.400;7.480;2023-01-15T10:45:52;10.40;97.50
851;DHT22;412;51.400;7.480;2023-01-15T10:50:53;10.80;97.30
851;DHT22;412;51.400;7.480;2023-01-15T10:53:30;10.70;97.00
851;DHT22;412;51.400;7.480;2023-01-15T10:56:15;10.60;97.30
851;DHT22;412;51.400;7.480;2023-01-15T10:58:51;10.40;96.40
851;DHT22;412;51.400;7.480;2023-01-15T11:01:20;10.30;97.70
851;DHT22;412;51.400;7.480;2023-01-15T11:03:48;10.20;97.10
851;DHT22;412;51.400;7.480;2023-01-15T11:06:16;10.10;97.70
851;DHT22;412;51.400;7.480;2023-01-15T11:08:45;10.00;97.90
851;DHT22;412;51.400;7.480;2023-01-15T11:11:23;10.10;97.20
851;DHT22;412;51.400;7.480;2023-01-15T11:14:08;10.10;97.50
851;DHT22;412;51.400;7.480;2023-01-15T11:16:53;10.10;97.90
851;DHT22;412;51.400;7.480;2023-01-15T11:19:39;10.20;97.00
851;DHT22;412;51.400;7.480;2023-01-15T11:22:17;10.00;97.20
851;DHT22;412;51.400;7.480;2023-01-15T11:24:59;10.00;96.80
851;DHT22;412;51.400;7.480;2023-01-15T11:27:32;9.90;97.80
851;DHT22;412;51.400;7.480;2023-01-15T11:30:00;9.80;97.60
851;DHT22;412;51.400;7.480;2023-01-15T11:32:36;9.70;98.30
851;DHT22;412;51.400;7.480;2023-01-15T11:35:17;9.70;98.40
851;DHT22;412;51.400;7.480;2023-01-15T11:37:43;9.60;99.10
851;DHT22;412;51.400;7.480;2023-01-15T11:40:20;9.60;98.30
851;DHT22;412;51.400;7.480;2023-01-15T11:42:48;9.60;98.70
851;DHT22;412;51.400;7.480;2023-01-15T11:45:33;9.60;97.90
851;DHT22;412;51.400;7.480;2023-01-15T11:48:20;9.40;97.70
851;DHT22;412;51.400;7.480;2023-01-15T11:51:07;9.40;98.40
851;DHT22;412;51.400;7.480;2023-01-15T11:53:47;9.40;98.20
851;DHT22;412;51.400;7.480;2023-01-15T11:56:19;9.40;98.50
851;DHT22;412;51.400;7.480;2023-01-15T11:58:50;9.50;98.80
851;DHT22;412;51.400;7.480;2023-01-15T12:03:59;9.60;98.90
851;DHT22;412;51.400;7.480;2023-01-15T12:06:25;9.50;97.70
851;DHT22;412;51.400;7.480;2023-01-15T12:14:30;9.40;97.10
851;DHT22;412;51.400;7.480;2023-01-15T12:17:25;9.40;98.40
851;DHT22;412;51.400;7.480;2023-01-15T12:22:55;9.40;98.60
851;DHT22;412;51.400;7.480;2023-01-15T12:25:43;9.40;99.10
851;DHT22;412;51.400;7.480;2023-01-15T12:28:13;9.40;99.90
851;DHT22;412;51.400;7.480;2023-01-15T12:31:05;9.50;99.90
851;DHT22;412;51.400;7.480;2023-01-15T12:33:52;9.60;99.90
851;DHT22;412;51.400;7.480;2023-01-15T12:36:20;9.90;99.90
851;DHT22;412;51.400;7.480;2023-01-15T12:39:17;10.20;99.90
851;DHT22;412;51.400;7.480;2023-01-15T12:41:48;10.50;99.90
851;DHT22;412;51.400;7.480;2023-01-15T12:47:53;10.90;99.90
851;DHT22;412;51.400;7.480;2023-01-15T12:53:12;11.10;99.90
851;DHT22;412;51.400;7.480;2023-01-15T12:58:36;10.80;93.80
851;DHT22;412;51.400;7.480;2023-01-15T13:01:29;10.30;94.90
851;DHT22;412;51.400;7.480;2023-01-15T13:06:23;9.90;97.50
851;DHT22;412;51.400;7.480;2023-01-15T13:09:18;9.80;97.50
851;DHT22;412;51.400;7.480;2023-01-15T13:11:47;9.70;97.30
851;DHT22;412;51.400;7.480;2023-01-15T13:14:16;9.60;97.80
851;DHT22;412;51.400;7.480;2023-01-15T13:17:54;9.50;98.10
851;DHT22;412;51.400;7.480;2023-01-15T13:20:02;9.30;99.00
851;DHT22;412;51.400;7.480;2023-01-15T13:22:31;9.30;99.30
851;DHT22;412;51.400;7.480;2023-01-15T13:28:36;9.40;98.20
851;DHT22;412;51.400;7.480;2023-01-15T13:31:10;9.50;98.60
851;DHT22;412;51.400;7.480;2023-01-15T13:33:47;9.50;98.60
851;DHT22;412;51.400;7.480;2023-01-15T13:36:32;9.50;99.50
851;DHT22;412;51.400;7.480;2023-01-15T13:39:03;9.50;99.00
851;DHT22;412;51.400;7.480;2023-01-15T13:41:33;9.40;98.30
851;DHT22;412;51.400;7.480;2023-01-15T13:44:22;9.40;98.80
851;DHT22;412;51.400;7.480;2023-01-15T13:47:03;9.40;98.70
851;DHT22;412;51.400;7.480;2023-01-15T13:49:43;9.30;99.50
851;DHT22;412;51.400;7.480;2023-01-15T13:52:39;9.30;99.00
851;DHT22;412;51.400;7.480;2023-01-15T13:57:41;9.30;99.30
851;DHT22;412;51.400;7.480;2023-01-15T14:00:35;9.40;99.00
851;DHT22;412;51.400;7.480;2023-01-15T14:03:22;9.40;98.30
851;DHT22;412;51.400;7.480;2023-01-15T14:06:17;9.40;98.20
851;DHT22;412;51.400;7.480;2023-01-15T14:08:44;9.30;98.40
851;DHT22;412;51.400;7.480;2023-01-15T14:23:17;9.50;98.80
851;DHT22;412;51.400;7.480;2023-01-15T14:28:37;9.40;98.50
851;DHT22;412;51.400;7.480;2023-01-15T14:36:18;9.40;98.30
851;DHT22;412;51.400;7.480;2023-01-15T14:38:54;9.40;98.60
851;DHT22;412;51.400;7.480;2023-01-15T14:41:26;9.40;99.00
851;DHT22;412;51.400;7.480;2023-01-15T14:43:53;9.40;99.30
851;DHT22;412;51.400;7.480;2023-01-15T14:46:31;9.50;98.60
851;DHT22;412;51.400;7.480;2023-01-15T14:49:03;9.50;99.30
851;DHT22;412;51.400;7.480;2023-01-15T14:51:32;9.60;99.20
851;DHT22;412;51.400;7.480;2023-01-15T14:54:06;9.40;99.20
851;DHT22;412;51.400;7.480;2023-01-15T14:56:33;9.40;99.70
851;DHT22;412;51.400;7.480;2023-01-15T14:59:07;9.30;99.60
851;DHT22;412;51.400;7.480;2023-01-15T15:01:43;9.30;99.90
851;DHT22;412;51.400;7.480;2023-01-15T15:07:02;9.30;99.50
851;DHT22;412;51.400;7.480;2023-01-15T15:09:42;9.30;99.50
851;DHT22;412;51.400;7.480;2023-01-15T15:12:39;9.30;99.00
851;DHT22;412;51.400;7.480;2023-01-15T15:23:43;9.30;98.70
851;DHT22;412;51.400;7.480;2023-01-15T15:26:31;9.30;98.60
851;DHT22;412;51.400;7.480;2023-01-15T15:28:59;9.10;99.10
851;DHT22;412;51.400;7.480;2023-01-15T15:31:25;9.10;99.90
851;DHT22;412;51.400;7.480;2023-01-15T15:33:53;9.20;99.90
851;DHT22;412;51.400;7.480;2023-01-15T15:36:20;9.30;99.90
851;DHT22;412;51.400;7.480;2023-01-15T15:39:01;9.30;99.90
851;DHT22;412;51.400;7.480;2023-01-15T15:41:31;9.30;99.90
851;DHT22;412;51.400;7.480;2023-01-15T15:44:31;9.20;99.90
851;DHT22;412;51.400;7.480;2023-01-15T15:47:21;9.20;99.90
851;DHT22;412;51.400;7.480;2023-01-15T15:50:26;9.30;99.90
851;DHT22;412;51.400;7.480;2023-01-15T15:52:54;9.30;99.90
851;DHT22;412;51.400;7.480;2023-01-15T15:55:21;9.30;99.70
851;DHT22;412;51.400;7.480;2023-01-15T15:57:56;9.30;99.90
851;DHT22;412;51.400;7.480;2023-01-15T16:00:31;9.30;99.20
851;DHT22;412;51.400;7.480;2023-01-15T16:03:04;9.20;99.10
851;DHT22;412;51.400;7.480;2023-01-15T16:05:30;9.20;99.50
851;DHT22;412;51.400;7.480;2023-01-15T16:08:18;9.30;99.40
851;DHT22;412;51.400;7.480;2023-01-15T16:10:47;9.20;99.30
851;DHT22;412;51.400;7.480;2023-01-15T16:13:33;9.20;99.10
851;DHT22;412;51.400;7.480;2023-01-15T16:16:01;9.30;99.40
851;DHT22;412;51.400;7.480;2023-01-15T16:18:34;9.30;99.90
851;DHT22;412;51.400;7.480;2023-01-15T16:21:00;9.20;99.90
851;DHT22;412;51.400;7.480;2023-01-15T16:23:28;9.20;99.90
851;DHT22;412;51.400;7.480;2023-01-15T16:26:00;9.20;99.90
851;DHT22;412;51.400;7.480;2023-01-15T16:28:36;9.20;99.90
851;DHT22;412;51.400;7.480;2023-01-15T16:31:04;9.20;99.90
851;DHT22;412;51.400;7.480;2023-01-15T16:33:30;9.20;99.90
851;DHT22;412;51.400;7.480;2023-01-15T16:35:59;9.20;99.80
851;DHT22;412;51.400;7.480;2023-01-15T16:38:31;9.10;99.80
851;DHT22;412;51.400;7.480;2023-01-15T16:40:58;9.20;99.90
851;DHT22;412;51.400;7.480;2023-01-15T16:43:25;9.20;99.70
851;DHT22;412;51.400;7.480;2023-01-15T16:46:06;9.20;99.50
851;DHT22;412;51.400;7.480;2023-01-15T16:48:41;9.30;99.80
851;DHT22;412;51.400;7.480;2023-01-15T16:53:57;9.40;99.90
851;DHT22;412;51.400;7.480;2023-01-15T16:59:04;9.30;99.90
851;DHT22;412;51.400;7.480;2023-01-15T17:01:41;9.30;99.90
851;DHT22;412;51.400;7.480;2023-01-15T17:04:38;9.20;99.90
851;DHT22;412;51.400;7.480;2023-01-15T17:07:26;9.20;99.90
851;DHT22;412;51.400;7.480;2023-01-15T17:09:57;9.20;99.90
851;DHT22;412;51.400;7.480;2023-01-15T17:17:49;9.20;99.90
851;DHT22;412;51.400;7.480;2023-01-15T17:20:17;9.20;99.90
851;DHT22;412;51.400;7.480;2023-01-15T17:22:45;9.10;99.90
851;DHT22;412;51.400;7.480;2023-01-15T17:25:28;9.20;99.90
851;DHT22;412;51.400;7.480;2023-01-15T17:27:56;9.10;99.90
851;DHT22;412;51.400;7.480;2023-01-15T17:30:24;9.20;99.90
851;DHT22;412;51.400;7.480;2023-01-15T17:32:59;9.10;99.90
851;DHT22;412;51.400;7.480;2023-01-15T17:35:30;9.10;99.90
851;DHT22;412;51.400;7.480;2023-01-15T17:37:56;9.10;99.90
851;DHT22;412;51.400;7.480;2023-01-15T17:40:22;9.00;99.90
851;DHT22;412;51.400;7.480;2023-01-15T17:42:48;9.00;99.90
851;DHT22;412;51.400;7.480;2023-01-15T17:45:21;9.00;99.90
851;DHT22;412;51.400;7.480;2023-01-15T17:47:47;9.00;99.90
851;DHT22;412;51.400;7.480;2023-01-15T17:50:14;9.00;99.90
851;DHT22;412;51.400;7.480;2023-01-15T17:52:40;9.00;99.90
851;DHT22;412;51.400;7.480;2023-01-15T17:55:19;9.00;99.90
851;DHT22;412;51.400;7.480;2023-01-15T17:58:04;9.10;99.90
851;DHT22;412;51.400;7.480;2023-01-15T18:00:48;9.10;99.90
851;DHT22;412;51.400;7.480;2023-01-15T18:03:34;9.20;99.90
851;DHT22;412;51.400;7.480;2023-01-15T18:06:20;9.20;99.90
851;DHT22;412;51.400;7.480;2023-01-15T18:08:53;9.10;99.90
851;DHT22;412;51.400;7.480;2023-01-15T18:11:20;9.00;99.90
851;DHT22;412;51.400;7.480;2023-01-15T18:13:46;9.00;99.90
851;DHT22;412;51.400;7.480;2023-01-15T18:16:12;9.00;99.90
851;DHT22;412;51.400;7.480;2023-01-15T18:18:37;9.10;99.90
851;DHT22;412;51.400;7.480;2023-01-15T18:21:03;9.10;99.90
851;DHT22;412;51.400;7.480;2023-01-15T18:23:31;9.10;99.90
851;DHT22;412;51.400;7.480;2023-01-15T18:26:02;9.20;99.90
851;DHT22;412;51.400;7.480;2023-01-15T18:28:33;9.00;99.90
851;DHT22;412;51.400;7.480;2023-01-15T18:31:00;8.90;99.90
851;DHT22;412;51.400;7.480;2023-01-15T18:33:26;9.00;99.90
851;DHT22;412;51.400;7.480;2023-01-15T18:36:07;9.00;99.90
851;DHT22;412;51.400;7.480;2023-01-15T18:38:42;9.00;99.90
851;DHT22;412;51.400;7.480;2023-01-15T18:41:10;9.00;99.90
851;DHT22;412;51.400;7.480;2023-01-15T18:43:36;8.90;99.90
851;DHT22;412;51.400;7.480;2023-01-15T18:46:21;8.90;99.90
851;DHT22;412;51.400;7.480;2023-01-15T18:49:05;8.90;99.90
851;DHT22;412;51.400;7.480;2023-01-15T18:51:31;9.00;99.90
851;DHT22;412;51.400;7.480;2023-01-15T18:53:57;9.00;99.90
851;DHT22;412;51.400;7.480;2023-01-15T18:56:23;9.00;99.90
851;DHT22;412;51.400;7.480;2023-01-15T18:59:13;9.00;99.90
851;DHT22;412;51.400;7.480;2023-01-15T19:01:40;9.00;99.90
851;DHT22;412;51.400;7.480;2023-01-15T19:04:06;9.00;99.90
851;DHT22;412;51.400;7.480;2023-01-15T19:06:36;9.00;99.90
851;DHT22;412;51.400;7.480;2023-01-15T19:09:03;9.00;99.90
851;DHT22;412;51.400;7.480;2023-01-15T19:11:29;9.00;99.90
851;DHT22;412;51.400;7.480;2023-01-15T19:13:55;9.10;99.90
851;DHT22;412;51.400;7.480;2023-01-15T19:16:40;8.90;99.90
851;DHT22;412;51.400;7.480;2023-01-15T19:19:25;8.90;99.90
851;DHT22;412;51.400;7.480;2023-01-15T19:21:50;8.80;99.90
851;DHT22;412;51.400;7.480;2023-01-15T19:24:36;8.70;99.90